sensor_id;sensor_type;location;lat;lon;timestamp;P1;P2;P0
73973;PMS5003;62336;-26.094;27.994;2022-08-21T00:00:27;2;1;
73973;PMS5003;62336;-26.094;27.994;2022-08-21T00:02:53;1;1;
73973;PMS5003;62336;-26.094;27.994;2022-08-21T00:05:18;2;2;
73973;PMS5003;62336;-26.094;27.994;2022-08-21T00:07:42;2;2;
73973;PMS5003;62336;-26.094;27.994;2022-08-21T00:10:08;1;1;
73973;PMS5003;62336;-26.094;27.994;2022-08-21T00:12:32;1;1;
73973;PMS5003;62336;-26.094;27.994;2022-08-21T00:14:58;1;1;
73973;PMS5003;62336;-26.094;27.994;2022-08-21T00:17:23;2;1;
73973;PMS5003;62336;-26.094;27.994;2022-08-21T00:19:48;2;1;
73973;PMS5003;62336;-26.094;27.994;2022-08-21T00:22:13;3;2;
73973;PMS5003;62336;-26.094;27.994;2022-08-21T00:24:38;4;2;
73973;PMS5003;62336;-26.094;27.994;2022-08-21T00:27:03;1;1;
73973;PMS5003;62336;-26.094;27.994;2022-08-21T00:29:28;2;2;
73973;PMS5003;62336;-26.094;27.994;2022-08-21T00:31:53;2;1;
73973;PMS5003;62336;-26.094;27.994;2022-08-21T00:34:18;1;1;
73973;PMS5003;62336;-26.094;27.994;2022-08-21T00:36:43;1;1;
73973;PMS5003;62336;-26.094;27.994;2022-08-21T00:39:09;3;2;
73973;PMS5003;62336;-26.094;27.994;2022-08-21T00:41:35;2;2;
73973;PMS5003;62336;-26.094;27.994;2022-08-21T00:43:58;1;1;
73973;PMS5003;62336;-26.094;27.994;2022-08-21T00:46:24;2;2;
73973;PMS5003;62336;-26.094;27.994;2022-08-21T00:48:49;3;2;
73973;PMS5003;62336;-26.094;27.994;2022-08-21T00:51:16;3;2;
73973;PMS5003;62336;-26.094;27.994;2022-08-21T00:53:40;3;3;
73973;PMS5003;62336;-26.094;27.994;2022-08-21T00:56:04;2;2;
73973;PMS5003;62336;-26.094;27.994;2022-08-21T00:58:29;3;2;
73973;PMS5003;62336;-26.094;27.994;2022-08-21T01:00:55;2;2;
73973;PMS5003;62336;-26.094;27.994;2022-08-21T01:03:20;3;2;
73973;PMS5003;62336;-26.094;27.994;2022-08-21T01:05:45;3;3;
73973;PMS5003;62336;-26.094;27.994;2022-08-21T01:08:10;3;3;
73973;PMS5003;62336;-26.094;27.994;2022-08-21T01:10:35;3;2;
73973;PMS5003;62336;-26.094;27.994;2022-08-21T01:13:00;3;3;
73973;PMS5003;62336;-26.094;27.994;2022-08-21T01:15:26;3;3;
73973;PMS5003;62336;-26.094;27.994;2022-08-21T01:17:50;2;2;
73973;PMS5003;62336;-26.094;27.994;2022-08-21T01:20:15;4;4;
73973;PMS5003;62336;-26.094;27.994;2022-08-21T01:22:41;3;3;
73973;PMS5003;62336;-26.094;27.994;2022-08-21T01:25:12;4;4;
73973;PMS5003;62336;-26.094;27.994;2022-08-21T01:27:30;2;2;
73973;PMS5003;62336;-26.094;27.994;2022-08-21T01:29:57;3;2;
73973;PMS5003;62336;-26.094;27.994;2022-08-21T01:32:21;4;4;
73973;PMS5003;62336;-26.094;27.994;2022-08-21T01:34:48;4;4;
73973;PMS5003;62336;-26.094;27.994;2022-08-21T01:37:13;4;4;
73973;PMS5003;62336;-26.094;27.994;2022-08-21T01:39:37;3;3;
73973;PMS5003;62336;-26.094;27.994;2022-08-21T01:42:02;4;4;
73973;PMS5003;62336;-26.094;27.994;2022-08-21T01:44:27;6;4;
73973;PMS5003;62336;-26.094;27.994;2022-08-21T01:46:52;4;4;
73973;PMS5003;62336;-26.094;27.994;2022-08-21T01:49:18;3;3;
73973;PMS5003;62336;-26.094;27.994;2022-08-21T01:51:42;3;3;
73973;PMS5003;62336;-26.094;27.994;2022-08-21T01:54:07;3;3;
73973;PMS5003;62336;-26.094;27.994;2022-08-21T01:56:35;3;3;
73973;PMS5003;62336;-26.094;27.994;2022-08-21T01:58:58;2;2;
73973;PMS5003;62336;-26.094;27.994;2022-08-21T02:01:22;3;3;
73973;PMS5003;62336;-26.094;27.994;2022-08-21T02:03:48;2;1;
73973;PMS5003;62336;-26.094;27.994;2022-08-21T02:06:14;3;3;
73973;PMS5003;62336;-26.094;27.994;2022-08-21T02:08:38;2;2;
73973;PMS5003;62336;-26.094;27.994;2022-08-21T02:11:03;5;4;
73973;PMS5003;62336;-26.094;27.994;2022-08-21T02:13:28;4;4;
73973;PMS5003;62336;-26.094;27.994;2022-08-21T02:15:53;3;2;
73973;PMS5003;62336;-26.094;27.994;2022-08-21T02:18:18;4;3;
73973;PMS5003;62336;-26.094;27.994;2022-08-21T02:20:45;2;2;
73973;PMS5003;62336;-26.094;27.994;2022-08-21T02:23:10;5;5;
73973;PMS5003;62336;-26.094;27.994;2022-08-21T02:25:34;5;3;
73973;PMS5003;62336;-26.094;27.994;2022-08-21T02:28:02;2;2;
73973;PMS5003;62336;-26.094;27.994;2022-08-21T02:30:25;5;5;
73973;PMS5003;62336;-26.094;27.994;2022-08-21T02:32:49;4;4;
73973;PMS5003;62336;-26.094;27.994;2022-08-21T02:35:14;4;3;
73973;PMS5003;62336;-26.094;27.994;2022-08-21T02:37:43;4;4;
73973;PMS5003;62336;-26.094;27.994;2022-08-21T02:40:10;4;3;
73973;PMS5003;62336;-26.094;27.994;2022-08-21T02:42:29;2;2;
73973;PMS5003;62336;-26.094;27.994;2022-08-21T02:44:55;3;3;
73973;PMS5003;62336;-26.094;27.994;2022-08-21T02:47:20;4;3;
73973;PMS5003;62336;-26.094;27.994;2022-08-21T02:49:45;3;3;
73973;PMS5003;62336;-26.094;27.994;2022-08-21T02:52:10;6;5;
73973;PMS5003;62336;-26.094;27.994;2022-08-21T02:54:35;4;4;
73973;PMS5003;62336;-26.094;27.994;2022-08-21T02:57:00;7;5;
73973;PMS5003;62336;-26.094;27.994;2022-08-21T02:59:25;2;2;
73973;PMS5003;62336;-26.094;27.994;2022-08-21T03:01:50;6;5;
73973;PMS5003;62336;-26.094;27.994;2022-08-21T03:04:15;7;7;
73973;PMS5003;62336;-26.094;27.994;2022-08-21T03:06:41;4;4;
73973;PMS5003;62336;-26.094;27.994;2022-08-21T03:09:06;6;5;
73973;PMS5003;62336;-26.094;27.994;2022-08-21T03:11:31;4;4;
73973;PMS5003;62336;-26.094;27.994;2022-08-21T03:13:56;5;5;
73973;PMS5003;62336;-26.094;27.994;2022-08-21T03:16:22;4;4;
73973;PMS5003;62336;-26.094;27.994;2022-08-21T03:18:47;7;7;
73973;PMS5003;62336;-26.094;27.994;2022-08-21T03:21:12;8;7;
73973;PMS5003;62336;-26.094;27.994;2022-08-21T03:23:38;7;6;
73973;PMS5003;62336;-26.094;27.994;2022-08-21T03:26:03;6;6;
73973;PMS5003;62336;-26.094;27.994;2022-08-21T03:28:28;7;7;
73973;PMS5003;62336;-26.094;27.994;2022-08-21T03:30:53;8;7;
73973;PMS5003;62336;-26.094;27.994;2022-08-21T03:33:18;6;6;
73973;PMS5003;62336;-26.094;27.994;2022-08-21T03:35:44;8;8;
73973;PMS5003;62336;-26.094;27.994;2022-08-21T03:38:09;9;7;
73973;PMS5003;62336;-26.094;27.994;2022-08-21T03:40:34;11;10;
73973;PMS5003;62336;-26.094;27.994;2022-08-21T03:43:00;11;10;
73973;PMS5003;62336;-26.094;27.994;2022-08-21T03:45:25;14;11;
73973;PMS5003;62336;-26.094;27.994;2022-08-21T03:47:51;11;11;
73973;PMS5003;62336;-26.094;27.994;2022-08-21T03:50:16;13;13;
73973;PMS5003;62336;-26.094;27.994;2022-08-21T03:52:41;13;12;
73973;PMS5003;62336;-26.094;27.994;2022-08-21T03:55:06;13;12;
73973;PMS5003;62336;-26.094;27.994;2022-08-21T03:57:32;11;10;
73973;PMS5003;62336;-26.094;27.994;2022-08-21T03:59:57;15;15;
73973;PMS5003;62336;-26.094;27.994;2022-08-21T04:02:22;14;14;
73973;PMS5003;62336;-26.094;27.994;2022-08-21T04:04:47;12;12;
73973;PMS5003;62336;-26.094;27.994;2022-08-21T04:07:13;13;13;
73973;PMS5003;62336;-26.094;27.994;2022-08-21T04:09:38;13;11;
73973;PMS5003;62336;-26.094;27.994;2022-08-21T04:12:04;16;14;
73973;PMS5003;62336;-26.094;27.994;2022-08-21T04:14:29;17;15;
73973;PMS5003;62336;-26.094;27.994;2022-08-21T04:16:54;16;14;
73973;PMS5003;62336;-26.094;27.994;2022-08-21T04:19:19;16;14;
73973;PMS5003;62336;-26.094;27.994;2022-08-21T04:21:45;17;16;
73973;PMS5003;62336;-26.094;27.994;2022-08-21T04:24:11;15;14;
73973;PMS5003;62336;-26.094;27.994;2022-08-21T04:26:37;14;14;
73973;PMS5003;62336;-26.094;27.994;2022-08-21T04:29:02;13;12;
73973;PMS5003;62336;-26.094;27.994;2022-08-21T04:31:27;17;16;
73973;PMS5003;62336;-26.094;27.994;2022-08-21T04:33:52;15;14;
73973;PMS5003;62336;-26.094;27.994;2022-08-21T04:36:18;14;13;
73973;PMS5003;62336;-26.094;27.994;2022-08-21T04:38:43;11;11;
73973;PMS5003;62336;-26.094;27.994;2022-08-21T04:41:09;12;12;
73973;PMS5003;62336;-26.094;27.994;2022-08-21T04:43:35;17;15;
73973;PMS5003;62336;-26.094;27.994;2022-08-21T04:46:00;14;14;
73973;PMS5003;62336;-26.094;27.994;2022-08-21T04:48:26;17;15;
73973;PMS5003;62336;-26.094;27.994;2022-08-21T04:50:51;13;13;
73973;PMS5003;62336;-26.094;27.994;2022-08-21T04:53:16;15;15;
73973;PMS5003;62336;-26.094;27.994;2022-08-21T04:55:41;13;12;
73973;PMS5003;62336;-26.094;27.994;2022-08-21T04:58:07;12;11;
73973;PMS5003;62336;-26.094;27.994;2022-08-21T05:00:32;13;12;
73973;PMS5003;62336;-26.094;27.994;2022-08-21T05:02:57;14;12;
73973;PMS5003;62336;-26.094;27.994;2022-08-21T05:05:23;15;14;
73973;PMS5003;62336;-26.094;27.994;2022-08-21T05:07:48;11;11;
73973;PMS5003;62336;-26.094;27.994;2022-08-21T05:10:13;11;11;
73973;PMS5003;62336;-26.094;27.994;2022-08-21T05:12:39;11;11;
73973;PMS5003;62336;-26.094;27.994;2022-08-21T05:15:04;10;8;
73973;PMS5003;62336;-26.094;27.994;2022-08-21T05:17:29;11;9;
73973;PMS5003;62336;-26.094;27.994;2022-08-21T05:19:56;9;8;
73973;PMS5003;62336;-26.094;27.994;2022-08-21T05:24:46;9;9;
73973;PMS5003;62336;-26.094;27.994;2022-08-21T05:27:12;12;11;
73973;PMS5003;62336;-26.094;27.994;2022-08-21T05:29:36;12;12;
73973;PMS5003;62336;-26.094;27.994;2022-08-21T05:32:03;13;9;
73973;PMS5003;62336;-26.094;27.994;2022-08-21T05:34:27;9;9;
73973;PMS5003;62336;-26.094;27.994;2022-08-21T05:36:52;46;35;
73973;PMS5003;62336;-26.094;27.994;2022-08-21T05:39:18;20;19;
73973;PMS5003;62336;-26.094;27.994;2022-08-21T05:41:43;21;13;
73973;PMS5003;62336;-26.094;27.994;2022-08-21T05:44:08;14;14;
73973;PMS5003;62336;-26.094;27.994;2022-08-21T05:46:33;14;14;
73973;PMS5003;62336;-26.094;27.994;2022-08-21T05:48:59;12;12;
73973;PMS5003;62336;-26.094;27.994;2022-08-21T05:51:24;17;16;
73973;PMS5003;62336;-26.094;27.994;2022-08-21T05:53:50;20;17;
73973;PMS5003;62336;-26.094;27.994;2022-08-21T05:56:15;22;19;
73973;PMS5003;62336;-26.094;27.994;2022-08-21T05:58:40;19;18;
73973;PMS5003;62336;-26.094;27.994;2022-08-21T06:01:05;20;19;
73973;PMS5003;62336;-26.094;27.994;2022-08-21T06:03:32;17;17;
73973;PMS5003;62336;-26.094;27.994;2022-08-21T06:05:56;25;21;
73973;PMS5003;62336;-26.094;27.994;2022-08-21T06:08:21;19;17;
73973;PMS5003;62336;-26.094;27.994;2022-08-21T06:10:47;19;19;
73973;PMS5003;62336;-26.094;27.994;2022-08-21T06:13:12;22;21;
73973;PMS5003;62336;-26.094;27.994;2022-08-21T06:15:37;21;20;
73973;PMS5003;62336;-26.094;27.994;2022-08-21T06:18:03;23;21;
73973;PMS5003;62336;-26.094;27.994;2022-08-21T06:20:28;21;19;
73973;PMS5003;62336;-26.094;27.994;2022-08-21T06:22:53;26;21;
73973;PMS5003;62336;-26.094;27.994;2022-08-21T06:25:19;22;21;
73973;PMS5003;62336;-26.094;27.994;2022-08-21T06:27:44;28;27;
73973;PMS5003;62336;-26.094;27.994;2022-08-21T06:30:10;22;20;
73973;PMS5003;62336;-26.094;27.994;2022-08-21T06:32:36;23;23;
73973;PMS5003;62336;-26.094;27.994;2022-08-21T06:35:02;24;21;
73973;PMS5003;62336;-26.094;27.994;2022-08-21T06:37:27;21;20;
73973;PMS5003;62336;-26.094;27.994;2022-08-21T06:39:52;22;21;
73973;PMS5003;62336;-26.094;27.994;2022-08-21T06:42:18;25;25;
73973;PMS5003;62336;-26.094;27.994;2022-08-21T06:44:43;21;19;
73973;PMS5003;62336;-26.094;27.994;2022-08-21T06:47:08;24;23;
73973;PMS5003;62336;-26.094;27.994;2022-08-21T06:49:33;24;23;
73973;PMS5003;62336;-26.094;27.994;2022-08-21T06:51:58;22;22;
73973;PMS5003;62336;-26.094;27.994;2022-08-21T06:54:24;25;21;
73973;PMS5003;62336;-26.094;27.994;2022-08-21T06:56:49;28;26;
73973;PMS5003;62336;-26.094;27.994;2022-08-21T06:59:15;23;20;
73973;PMS5003;62336;-26.094;27.994;2022-08-21T07:01:40;22;21;
73973;PMS5003;62336;-26.094;27.994;2022-08-21T07:04:06;22;20;
73973;PMS5003;62336;-26.094;27.994;2022-08-21T07:06:31;18;18;
73973;PMS5003;62336;-26.094;27.994;2022-08-21T07:08:57;23;22;
73973;PMS5003;62336;-26.094;27.994;2022-08-21T07:11:23;21;20;
73973;PMS5003;62336;-26.094;27.994;2022-08-21T07:13:48;24;23;
73973;PMS5003;62336;-26.094;27.994;2022-08-21T07:16:13;23;22;
73973;PMS5003;62336;-26.094;27.994;2022-08-21T07:18:38;21;20;
73973;PMS5003;62336;-26.094;27.994;2022-08-21T07:21:04;26;25;
73973;PMS5003;62336;-26.094;27.994;2022-08-21T07:23:30;20;19;
73973;PMS5003;62336;-26.094;27.994;2022-08-21T07:25:55;26;23;
73973;PMS5003;62336;-26.094;27.994;2022-08-21T07:28:20;20;19;
73973;PMS5003;62336;-26.094;27.994;2022-08-21T07:30:45;15;15;
73973;PMS5003;62336;-26.094;27.994;2022-08-21T07:33:11;12;12;
73973;PMS5003;62336;-26.094;27.994;2022-08-21T07:35:37;17;17;
73973;PMS5003;62336;-26.094;27.994;2022-08-21T07:38:02;13;12;
73973;PMS5003;62336;-26.094;27.994;2022-08-21T07:40:27;13;13;
73973;PMS5003;62336;-26.094;27.994;2022-08-21T07:42:52;13;12;
73973;PMS5003;62336;-26.094;27.994;2022-08-21T07:45:19;15;14;
73973;PMS5003;62336;-26.094;27.994;2022-08-21T07:47:43;18;17;
73973;PMS5003;62336;-26.094;27.994;2022-08-21T07:50:08;16;15;
73973;PMS5003;62336;-26.094;27.994;2022-08-21T07:52:34;16;15;
73973;PMS5003;62336;-26.094;27.994;2022-08-21T07:54:59;19;19;
73973;PMS5003;62336;-26.094;27.994;2022-08-21T07:57:24;22;20;
73973;PMS5003;62336;-26.094;27.994;2022-08-21T07:59:50;24;21;
73973;PMS5003;62336;-26.094;27.994;2022-08-21T08:04:41;21;20;
73973;PMS5003;62336;-26.094;27.994;2022-08-21T08:07:07;21;19;
73973;PMS5003;62336;-26.094;27.994;2022-08-21T08:09:32;18;17;
73973;PMS5003;62336;-26.094;27.994;2022-08-21T08:11:57;22;20;
73973;PMS5003;62336;-26.094;27.994;2022-08-21T08:14:23;22;22;
73973;PMS5003;62336;-26.094;27.994;2022-08-21T08:16:48;22;19;
73973;PMS5003;62336;-26.094;27.994;2022-08-21T08:19:14;20;17;
73973;PMS5003;62336;-26.094;27.994;2022-08-21T08:21:40;18;18;
73973;PMS5003;62336;-26.094;27.994;2022-08-21T08:24:05;20;18;
73973;PMS5003;62336;-26.094;27.994;2022-08-21T08:26:30;17;16;
73973;PMS5003;62336;-26.094;27.994;2022-08-21T08:28:55;16;16;
73973;PMS5003;62336;-26.094;27.994;2022-08-21T08:31:21;17;16;
73973;PMS5003;62336;-26.094;27.994;2022-08-21T08:33:46;21;21;
73973;PMS5003;62336;-26.094;27.994;2022-08-21T08:36:13;21;20;
73973;PMS5003;62336;-26.094;27.994;2022-08-21T08:38:37;19;18;
73973;PMS5003;62336;-26.094;27.994;2022-08-21T08:41:05;23;18;
73973;PMS5003;62336;-26.094;27.994;2022-08-21T08:43:29;23;22;
73973;PMS5003;62336;-26.094;27.994;2022-08-21T08:45:54;22;21;
73973;PMS5003;62336;-26.094;27.994;2022-08-21T08:48:26;16;15;
73973;PMS5003;62336;-26.094;27.994;2022-08-21T08:50:47;21;21;
73973;PMS5003;62336;-26.094;27.994;2022-08-21T08:53:11;20;19;
73973;PMS5003;62336;-26.094;27.994;2022-08-21T08:55:37;21;20;
73973;PMS5003;62336;-26.094;27.994;2022-08-21T08:58:01;21;20;
73973;PMS5003;62336;-26.094;27.994;2022-08-21T09:00:27;21;19;
73973;PMS5003;62336;-26.094;27.994;2022-08-21T09:02:52;20;19;
73973;PMS5003;62336;-26.094;27.994;2022-08-21T09:05:19;20;20;
73973;PMS5003;62336;-26.094;27.994;2022-08-21T09:07:44;23;21;
73973;PMS5003;62336;-26.094;27.994;2022-08-21T09:10:12;22;21;
73973;PMS5003;62336;-26.094;27.994;2022-08-21T09:12:36;20;20;
73973;PMS5003;62336;-26.094;27.994;2022-08-21T09:15:02;25;22;
73973;PMS5003;62336;-26.094;27.994;2022-08-21T09:17:27;24;22;
73973;PMS5003;62336;-26.094;27.994;2022-08-21T09:19:56;19;18;
73973;PMS5003;62336;-26.094;27.994;2022-08-21T09:22:16;20;18;
73973;PMS5003;62336;-26.094;27.994;2022-08-21T09:24:41;23;22;
73973;PMS5003;62336;-26.094;27.994;2022-08-21T09:27:06;20;19;
73973;PMS5003;62336;-26.094;27.994;2022-08-21T09:29:31;20;20;
73973;PMS5003;62336;-26.094;27.994;2022-08-21T09:31:56;19;17;
73973;PMS5003;62336;-26.094;27.994;2022-08-21T09:34:25;22;20;
73973;PMS5003;62336;-26.094;27.994;2022-08-21T09:36:47;21;20;
73973;PMS5003;62336;-26.094;27.994;2022-08-21T09:39:12;21;19;
73973;PMS5003;62336;-26.094;27.994;2022-08-21T09:41:37;19;18;
73973;PMS5003;62336;-26.094;27.994;2022-08-21T09:44:02;20;19;
73973;PMS5003;62336;-26.094;27.994;2022-08-21T09:46:27;20;20;
73973;PMS5003;62336;-26.094;27.994;2022-08-21T09:48:53;21;21;
73973;PMS5003;62336;-26.094;27.994;2022-08-21T09:51:20;22;21;
73973;PMS5003;62336;-26.094;27.994;2022-08-21T09:53:46;24;22;
73973;PMS5003;62336;-26.094;27.994;2022-08-21T09:58:35;24;23;
73973;PMS5003;62336;-26.094;27.994;2022-08-21T10:01:00;28;24;
73973;PMS5003;62336;-26.094;27.994;2022-08-21T10:03:26;22;21;
73973;PMS5003;62336;-26.094;27.994;2022-08-21T10:05:54;21;20;
73973;PMS5003;62336;-26.094;27.994;2022-08-21T10:08:17;27;27;
73973;PMS5003;62336;-26.094;27.994;2022-08-21T10:10:41;22;21;
73973;PMS5003;62336;-26.094;27.994;2022-08-21T10:13:08;26;23;
73973;PMS5003;62336;-26.094;27.994;2022-08-21T10:15:34;23;22;
73973;PMS5003;62336;-26.094;27.994;2022-08-21T10:17:59;25;23;
73973;PMS5003;62336;-26.094;27.994;2022-08-21T10:20:23;20;19;
73973;PMS5003;62336;-26.094;27.994;2022-08-21T10:22:48;24;23;
73973;PMS5003;62336;-26.094;27.994;2022-08-21T10:25:14;21;20;
73973;PMS5003;62336;-26.094;27.994;2022-08-21T10:27:41;25;23;
73973;PMS5003;62336;-26.094;27.994;2022-08-21T10:30:05;21;21;
73973;PMS5003;62336;-26.094;27.994;2022-08-21T10:32:35;23;23;
73973;PMS5003;62336;-26.094;27.994;2022-08-21T10:34:58;26;24;
73973;PMS5003;62336;-26.094;27.994;2022-08-21T10:37:24;24;24;
73973;PMS5003;62336;-26.094;27.994;2022-08-21T10:39:48;25;22;
73973;PMS5003;62336;-26.094;27.994;2022-08-21T10:42:21;24;21;
73973;PMS5003;62336;-26.094;27.994;2022-08-21T10:44:38;27;24;
73973;PMS5003;62336;-26.094;27.994;2022-08-21T10:47:04;27;26;
73973;PMS5003;62336;-26.094;27.994;2022-08-21T10:49:31;25;23;
73973;PMS5003;62336;-26.094;27.994;2022-08-21T10:51:55;25;24;
73973;PMS5003;62336;-26.094;27.994;2022-08-21T10:54:21;23;21;
73973;PMS5003;62336;-26.094;27.994;2022-08-21T10:56:45;26;25;
73973;PMS5003;62336;-26.094;27.994;2022-08-21T11:01:39;24;23;
73973;PMS5003;62336;-26.094;27.994;2022-08-21T11:04:09;34;32;
73973;PMS5003;62336;-26.094;27.994;2022-08-21T11:06:27;31;29;
73973;PMS5003;62336;-26.094;27.994;2022-08-21T11:08:53;36;32;
73973;PMS5003;62336;-26.094;27.994;2022-08-21T11:11:20;34;34;
73973;PMS5003;62336;-26.094;27.994;2022-08-21T11:13:43;31;29;
73973;PMS5003;62336;-26.094;27.994;2022-08-21T11:16:10;35;34;
73973;PMS5003;62336;-26.094;27.994;2022-08-21T11:18:34;40;38;
73973;PMS5003;62336;-26.094;27.994;2022-08-21T11:21:02;41;36;
73973;PMS5003;62336;-26.094;27.994;2022-08-21T11:23:26;39;38;
73973;PMS5003;62336;-26.094;27.994;2022-08-21T11:25:51;42;35;
73973;PMS5003;62336;-26.094;27.994;2022-08-21T11:28:17;35;32;
73973;PMS5003;62336;-26.094;27.994;2022-08-21T11:30:42;36;34;
73973;PMS5003;62336;-26.094;27.994;2022-08-21T11:33:10;33;29;
73973;PMS5003;62336;-26.094;27.994;2022-08-21T11:35:33;32;31;
73973;PMS5003;62336;-26.094;27.994;2022-08-21T11:37:58;32;31;
73973;PMS5003;62336;-26.094;27.994;2022-08-21T11:40:31;30;30;
73973;PMS5003;62336;-26.094;27.994;2022-08-21T11:42:48;38;36;
73973;PMS5003;62336;-26.094;27.994;2022-08-21T11:45:16;38;37;
73973;PMS5003;62336;-26.094;27.994;2022-08-21T11:47:46;33;31;
73973;PMS5003;62336;-26.094;27.994;2022-08-21T11:50:09;35;32;
73973;PMS5003;62336;-26.094;27.994;2022-08-21T11:52:30;33;31;
73973;PMS5003;62336;-26.094;27.994;2022-08-21T11:54:56;33;33;
73973;PMS5003;62336;-26.094;27.994;2022-08-21T11:57:20;37;35;
73973;PMS5003;62336;-26.094;27.994;2022-08-21T11:59:46;40;39;
73973;PMS5003;62336;-26.094;27.994;2022-08-21T12:02:12;39;38;
73973;PMS5003;62336;-26.094;27.994;2022-08-21T12:04:41;38;38;
73973;PMS5003;62336;-26.094;27.994;2022-08-21T12:09:30;32;31;
73973;PMS5003;62336;-26.094;27.994;2022-08-21T12:14:18;30;29;
73973;PMS5003;62336;-26.094;27.994;2022-08-21T12:16:44;29;25;
73973;PMS5003;62336;-26.094;27.994;2022-08-21T12:19:10;32;28;
73973;PMS5003;62336;-26.094;27.994;2022-08-21T12:21:46;28;28;
73973;PMS5003;62336;-26.094;27.994;2022-08-21T12:24:02;30;29;
73973;PMS5003;62336;-26.094;27.994;2022-08-21T12:26:27;28;27;
73973;PMS5003;62336;-26.094;27.994;2022-08-21T12:28:51;31;30;
73973;PMS5003;62336;-26.094;27.994;2022-08-21T12:31:18;24;24;
73973;PMS5003;62336;-26.094;27.994;2022-08-21T12:33:42;31;29;
73973;PMS5003;62336;-26.094;27.994;2022-08-21T12:36:09;26;25;
73973;PMS5003;62336;-26.094;27.994;2022-08-21T12:38:33;30;29;
73973;PMS5003;62336;-26.094;27.994;2022-08-21T12:41:01;33;32;
73973;PMS5003;62336;-26.094;27.994;2022-08-21T12:43:26;29;27;
73973;PMS5003;62336;-26.094;27.994;2022-08-21T12:45:49;26;26;
73973;PMS5003;62336;-26.094;27.994;2022-08-21T12:48:16;30;28;
73973;PMS5003;62336;-26.094;27.994;2022-08-21T12:50:42;32;28;
73973;PMS5003;62336;-26.094;27.994;2022-08-21T12:53:07;30;30;
73973;PMS5003;62336;-26.094;27.994;2022-08-21T12:55:32;31;29;
73973;PMS5003;62336;-26.094;27.994;2022-08-21T12:57:57;33;31;
73973;PMS5003;62336;-26.094;27.994;2022-08-21T13:00:22;29;29;
73973;PMS5003;62336;-26.094;27.994;2022-08-21T13:02:48;26;26;
73973;PMS5003;62336;-26.094;27.994;2022-08-21T13:05:13;27;25;
73973;PMS5003;62336;-26.094;27.994;2022-08-21T13:07:38;24;23;
73973;PMS5003;62336;-26.094;27.994;2022-08-21T13:10:05;27;27;
73973;PMS5003;62336;-26.094;27.994;2022-08-21T13:12:28;28;28;
73973;PMS5003;62336;-26.094;27.994;2022-08-21T13:14:55;33;30;
73973;PMS5003;62336;-26.094;27.994;2022-08-21T13:17:20;45;43;
73973;PMS5003;62336;-26.094;27.994;2022-08-21T13:22:12;47;47;
73973;PMS5003;62336;-26.094;27.994;2022-08-21T13:24:36;47;45;
73973;PMS5003;62336;-26.094;27.994;2022-08-21T13:27:01;44;41;
73973;PMS5003;62336;-26.094;27.994;2022-08-21T13:29:28;44;41;
73973;PMS5003;62336;-26.094;27.994;2022-08-21T13:31:52;57;52;
73973;PMS5003;62336;-26.094;27.994;2022-08-21T13:34:18;52;50;
73973;PMS5003;62336;-26.094;27.994;2022-08-21T13:36:43;47;46;
73973;PMS5003;62336;-26.094;27.994;2022-08-21T13:39:09;49;46;
73973;PMS5003;62336;-26.094;27.994;2022-08-21T13:41:34;47;43;
73973;PMS5003;62336;-26.094;27.994;2022-08-21T13:43:59;45;42;
73973;PMS5003;62336;-26.094;27.994;2022-08-21T13:46:25;34;32;
73973;PMS5003;62336;-26.094;27.994;2022-08-21T13:48:50;28;27;
73973;PMS5003;62336;-26.094;27.994;2022-08-21T13:51:15;28;27;
73973;PMS5003;62336;-26.094;27.994;2022-08-21T13:53:45;26;23;
73973;PMS5003;62336;-26.094;27.994;2022-08-21T13:56:07;25;22;
73973;PMS5003;62336;-26.094;27.994;2022-08-21T13:58:33;29;26;
73973;PMS5003;62336;-26.094;27.994;2022-08-21T14:00:58;25;25;
73973;PMS5003;62336;-26.094;27.994;2022-08-21T14:03:27;28;22;
73973;PMS5003;62336;-26.094;27.994;2022-08-21T14:05:49;27;23;
73973;PMS5003;62336;-26.094;27.994;2022-08-21T14:08:15;35;32;
73973;PMS5003;62336;-26.094;27.994;2022-08-21T14:10:42;36;34;
73973;PMS5003;62336;-26.094;27.994;2022-08-21T14:13:06;34;32;
73973;PMS5003;62336;-26.094;27.994;2022-08-21T14:15:32;35;34;
73973;PMS5003;62336;-26.094;27.994;2022-08-21T14:20:26;38;36;
73973;PMS5003;62336;-26.094;27.994;2022-08-21T14:22:47;40;38;
73973;PMS5003;62336;-26.094;27.994;2022-08-21T14:25:14;39;38;
73973;PMS5003;62336;-26.094;27.994;2022-08-21T14:27:40;44;41;
73973;PMS5003;62336;-26.094;27.994;2022-08-21T14:30:09;44;40;
73973;PMS5003;62336;-26.094;27.994;2022-08-21T14:32:30;46;43;
73973;PMS5003;62336;-26.094;27.994;2022-08-21T14:34:54;66;64;
73973;PMS5003;62336;-26.094;27.994;2022-08-21T14:37:20;130;114;
73973;PMS5003;62336;-26.094;27.994;2022-08-21T14:39:45;56;53;
73973;PMS5003;62336;-26.094;27.994;2022-08-21T14:42:10;45;43;
73973;PMS5003;62336;-26.094;27.994;2022-08-21T14:44:36;54;53;
73973;PMS5003;62336;-26.094;27.994;2022-08-21T14:47:02;45;43;
73973;PMS5003;62336;-26.094;27.994;2022-08-21T14:49:28;50;50;
73973;PMS5003;62336;-26.094;27.994;2022-08-21T14:51:52;58;57;
73973;PMS5003;62336;-26.094;27.994;2022-08-21T14:54:18;82;72;
73973;PMS5003;62336;-26.094;27.994;2022-08-21T14:56:43;71;66;
73973;PMS5003;62336;-26.094;27.994;2022-08-21T14:59:09;62;59;
73973;PMS5003;62336;-26.094;27.994;2022-08-21T15:01:35;51;50;
73973;PMS5003;62336;-26.094;27.994;2022-08-21T15:04:00;52;51;
73973;PMS5003;62336;-26.094;27.994;2022-08-21T15:06:26;48;48;
73973;PMS5003;62336;-26.094;27.994;2022-08-21T15:08:51;49;47;
73973;PMS5003;62336;-26.094;27.994;2022-08-21T15:11:18;52;50;
73973;PMS5003;62336;-26.094;27.994;2022-08-21T15:13:42;46;42;
73973;PMS5003;62336;-26.094;27.994;2022-08-21T15:16:09;43;43;
73973;PMS5003;62336;-26.094;27.994;2022-08-21T15:18:33;46;46;
73973;PMS5003;62336;-26.094;27.994;2022-08-21T15:20:59;48;43;
73973;PMS5003;62336;-26.094;27.994;2022-08-21T15:23:25;49;46;
73973;PMS5003;62336;-26.094;27.994;2022-08-21T15:25:50;48;47;
73973;PMS5003;62336;-26.094;27.994;2022-08-21T15:28:17;44;43;
73973;PMS5003;62336;-26.094;27.994;2022-08-21T15:30:42;42;39;
73973;PMS5003;62336;-26.094;27.994;2022-08-21T15:33:07;44;40;
73973;PMS5003;62336;-26.094;27.994;2022-08-21T15:35:33;37;35;
73973;PMS5003;62336;-26.094;27.994;2022-08-21T15:37:58;42;40;
73973;PMS5003;62336;-26.094;27.994;2022-08-21T15:40:23;38;36;
73973;PMS5003;62336;-26.094;27.994;2022-08-21T15:42:56;39;37;
73973;PMS5003;62336;-26.094;27.994;2022-08-21T15:45:15;35;34;
73973;PMS5003;62336;-26.094;27.994;2022-08-21T15:47:43;35;33;
73973;PMS5003;62336;-26.094;27.994;2022-08-21T15:50:07;36;34;
73973;PMS5003;62336;-26.094;27.994;2022-08-21T15:52:32;41;39;
73973;PMS5003;62336;-26.094;27.994;2022-08-21T15:54:58;41;39;
73973;PMS5003;62336;-26.094;27.994;2022-08-21T15:57:23;41;39;
73973;PMS5003;62336;-26.094;27.994;2022-08-21T15:59:51;38;36;